createdAt,value
2022-09-07T00:01:07.522Z,2.97
2022-09-07T00:03:34.663Z,3.00
2022-09-07T00:06:05.933Z,2.90
2022-09-07T00:08:32.838Z,3.10
2022-09-07T00:11:02.399Z,3.05
2022-09-07T00:13:31.299Z,2.70
2022-09-07T00:15:58.339Z,2.70
2022-09-07T00:18:25.376Z,2.80
2022-09-07T00:21:02.243Z,3.13
2022-09-07T00:23:29.859Z,3.00
2022-09-07T00:26:01.284Z,3.13
2022-09-07T00:28:28.711Z,2.95
2022-09-07T00:30:55.667Z,3.00
2022-09-07T00:33:22.720Z,2.97
2022-09-07T00:35:49.633Z,2.97
2022-09-07T00:38:16.563Z,2.92
2022-09-07T00:40:43.457Z,3.15
2022-09-07T00:43:15.888Z,2.95
2022-09-07T00:45:43.112Z,2.97
2022-09-07T00:48:17.157Z,3.00
2022-09-07T00:50:59.668Z,3.28
2022-09-07T00:53:30.763Z,2.92
2022-09-07T00:55:57.838Z,2.63
2022-09-07T00:58:24.729Z,3.00
2022-09-07T01:00:51.833Z,3.03
2022-09-07T01:03:25.816Z,2.90
2022-09-07T01:06:01.401Z,2.85
2022-09-07T01:08:28.318Z,2.97
2022-09-07T01:10:55.705Z,3.35
2022-09-07T01:13:23.126Z,2.78
2022-09-07T01:16:09.278Z,3.10
2022-09-07T01:19:18.131Z,3.05
2022-09-07T01:22:06.376Z,3.22
2022-09-07T01:24:53.031Z,2.92
2022-09-07T01:27:38.083Z,2.80
2022-09-07T01:30:10.806Z,3.13
2022-09-07T01:32:57.039Z,3.00
2022-09-07T01:35:50.780Z,3.03
2022-09-07T01:38:37.604Z,3.00
2022-09-07T01:41:13.546Z,3.20
2022-09-07T01:43:57.072Z,2.92
2022-09-07T01:46:42.920Z,3.20
2022-09-07T01:49:47.157Z,2.90
2022-09-07T01:52:17.166Z,3.05
2022-09-07T01:54:55.192Z,3.25
2022-09-07T01:57:26.954Z,3.30
2022-09-07T01:59:58.714Z,3.08
2022-09-07T02:02:29.742Z,3.17
2022-09-07T02:05:35.032Z,3.30
2022-09-07T02:08:13.684Z,3.63
2022-09-07T02:10:44.904Z,3.35
2022-09-07T02:13:31.660Z,2.95
2022-09-07T02:16:07.498Z,3.33
2022-09-07T02:18:41.038Z,2.75
2022-09-07T02:21:08.248Z,3.17
2022-09-07T02:23:46.878Z,3.40
2022-09-07T02:26:16.604Z,3.05
2022-09-07T02:28:43.585Z,3.40
2022-09-07T02:31:10.514Z,2.97
2022-09-07T02:33:37.474Z,3.05
2022-09-07T02:36:04.552Z,3.38
2022-09-07T02:38:33.092Z,3.03
2022-09-07T02:41:00.806Z,3.20
2022-09-07T02:43:27.745Z,3.28
2022-09-07T02:46:09.868Z,3.10
2022-09-07T02:48:51.945Z,3.25
2022-09-07T02:51:54.205Z,3.47
2022-09-07T02:54:48.305Z,3.40
2022-09-07T02:57:18.320Z,3.08
2022-09-07T03:00:02.506Z,3.35
2022-09-07T03:02:34.214Z,3.35
2022-09-07T03:05:01.071Z,3.33
2022-09-07T03:07:43.979Z,3.05
2022-09-07T03:10:11.326Z,3.30
2022-09-07T03:12:48.978Z,3.20
2022-09-07T03:15:21.384Z,3.13
2022-09-07T03:17:48.578Z,3.33
2022-09-07T03:20:17.103Z,3.00
2022-09-07T03:22:44.988Z,3.35
2022-09-07T03:25:11.923Z,3.03
2022-09-07T03:27:38.846Z,3.03
2022-09-07T03:30:06.886Z,3.45
2022-09-07T03:32:35.146Z,3.28
2022-09-07T03:35:02.161Z,3.33
2022-09-07T03:37:29.138Z,3.17
2022-09-07T03:39:56.132Z,3.50
2022-09-07T03:42:23.158Z,3.15
2022-09-07T03:44:50.264Z,3.17
2022-09-07T03:47:17.548Z,3.28
2022-09-07T03:49:44.776Z,3.10
2022-09-07T03:52:11.658Z,3.47
2022-09-07T03:54:39.742Z,4.38
2022-09-07T03:57:06.970Z,6.20
2022-09-07T03:59:34.043Z,5.72
2022-09-07T04:02:01.763Z,5.28
2022-09-07T04:04:29.170Z,5.57
2022-09-07T04:06:56.291Z,5.22
2022-09-07T04:09:23.523Z,5.20
2022-09-07T04:11:52.261Z,4.90
2022-09-07T04:14:19.324Z,4.97
2022-09-07T04:16:46.687Z,6.10
2022-09-07T04:19:15.300Z,4.63
2022-09-07T04:21:44.380Z,5.05
2022-09-07T04:24:11.339Z,4.95
2022-09-07T04:26:38.457Z,4.40
2022-09-07T04:29:06.969Z,4.63
2022-09-07T04:31:34.726Z,4.50
2022-09-07T04:34:01.874Z,4.50
2022-09-07T04:36:28.995Z,4.47
2022-09-07T04:39:00.171Z,3.90
2022-09-07T04:41:28.656Z,3.97
2022-09-07T04:43:59.915Z,4.13
2022-09-07T04:46:28.801Z,4.68
2022-09-07T04:48:59.444Z,4.05
2022-09-07T04:51:28.469Z,4.45
2022-09-07T04:53:56.431Z,5.10
2022-09-07T04:56:23.657Z,5.88
2022-09-07T04:58:50.851Z,4.88
2022-09-07T05:01:20.724Z,4.80
2022-09-07T05:03:48.273Z,4.65
2022-09-07T05:06:15.529Z,5.20
2022-09-07T05:08:49.924Z,5.78
2022-09-07T05:13:43.846Z,4.50
2022-09-07T05:16:29.382Z,6.07
2022-09-07T05:19:01.225Z,4.32
2022-09-07T05:21:30.074Z,4.85
2022-09-07T05:23:57.761Z,4.40
2022-09-07T05:26:27.357Z,4.70
2022-09-07T05:31:41.830Z,6.32
2022-09-07T05:36:56.688Z,5.60
2022-09-07T05:39:23.834Z,4.70
2022-09-07T05:41:50.897Z,4.40
2022-09-07T05:47:04.896Z,12.57
2022-09-07T05:49:32.542Z,6.18
2022-09-07T05:51:59.779Z,4.97
2022-09-07T05:54:26.964Z,5.00
2022-09-07T05:56:53.983Z,5.30
2022-09-07T05:59:20.979Z,5.88
2022-09-07T06:01:48.051Z,5.75
2022-09-07T06:04:15.267Z,5.93
2022-09-07T06:06:47.814Z,6.10
2022-09-07T06:09:30.341Z,5.97
2022-09-07T06:11:57.941Z,6.60
2022-09-07T06:14:25.138Z,6.75
2022-09-07T06:16:52.218Z,6.97
2022-09-07T06:19:19.271Z,6.63
2022-09-07T06:21:46.294Z,8.75
2022-09-07T06:24:13.405Z,7.05
2022-09-07T06:26:40.495Z,6.65
2022-09-07T06:29:08.727Z,6.88
2022-09-07T06:31:35.922Z,11.65
2022-09-07T06:34:02.921Z,8.13
2022-09-07T06:36:29.958Z,7.18
2022-09-07T06:39:01.931Z,7.60
2022-09-07T06:44:20.930Z,9.27
2022-09-07T06:47:03.856Z,8.32
2022-09-07T06:49:31.412Z,7.63
2022-09-07T06:51:58.436Z,8.07
2022-09-07T06:57:12.594Z,7.25
2022-09-07T06:59:39.624Z,7.35
2022-09-07T07:02:06.704Z,7.90
2022-09-07T07:04:39.616Z,7.40
2022-09-07T07:07:10.894Z,8.07
2022-09-07T07:09:38.531Z,8.70
2022-09-07T07:12:05.507Z,8.40
2022-09-07T07:14:34.651Z,9.95
2022-09-07T07:17:02.665Z,10.05
2022-09-07T07:19:29.705Z,10.90
2022-09-07T07:24:43.951Z,15.90
2022-09-07T07:27:10.935Z,14.95
2022-09-07T07:29:37.919Z,13.57
2022-09-07T07:32:05.378Z,14.15
2022-09-07T07:34:32.438Z,15.88
2022-09-07T07:36:59.395Z,18.23
2022-09-07T07:42:13.369Z,16.45
2022-09-07T07:44:40.300Z,15.95
2022-09-07T07:47:07.238Z,15.15
2022-09-07T07:49:34.150Z,14.95
2022-09-07T07:54:48.280Z,14.18
2022-09-07T07:57:16.994Z,14.48
2022-09-07T07:59:43.987Z,16.30
2022-09-07T08:02:15.122Z,12.15
2022-09-07T08:04:42.290Z,14.18
2022-09-07T08:07:11.008Z,11.50
2022-09-07T08:09:44.665Z,14.35
2022-09-07T08:12:13.209Z,15.20
2022-09-07T08:14:43.156Z,14.73
2022-09-07T08:17:11.047Z,14.35
2022-09-07T08:19:38.256Z,13.85
2022-09-07T08:22:05.313Z,15.73
2022-09-07T08:24:32.424Z,16.00
2022-09-07T08:26:59.474Z,15.98
2022-09-07T08:29:27.254Z,15.82
2022-09-07T08:31:54.571Z,14.55
2022-09-07T08:34:22.099Z,14.10
2022-09-07T08:36:49.044Z,13.85
2022-09-07T08:39:16.204Z,13.80
2022-09-07T08:42:07.806Z,13.65
2022-09-07T08:44:45.816Z,13.88
2022-09-07T08:47:36.543Z,14.55
2022-09-07T08:50:20.513Z,12.90
2022-09-07T08:52:54.779Z,14.80
2022-09-07T08:57:58.060Z,11.45
2022-09-07T09:00:25.756Z,12.77
2022-09-07T09:05:55.724Z,11.80
2022-09-07T09:08:41.230Z,11.18
2022-09-07T09:11:20.608Z,13.00
2022-09-07T09:14:15.909Z,10.88
2022-09-07T09:17:12.140Z,11.25
2022-09-07T09:20:00.540Z,10.82
2022-09-07T09:22:28.657Z,10.80
2022-09-07T09:25:20.198Z,11.23
2022-09-07T09:27:50.822Z,30.75
2022-09-07T09:30:19.728Z,19.83
2022-09-07T09:32:48.549Z,17.60
2022-09-07T09:35:37.139Z,10.57
2022-09-07T09:38:04.190Z,11.90
2022-09-07T09:40:34.466Z,11.57
2022-09-07T09:43:34.138Z,8.77
2022-09-07T09:46:17.209Z,7.47
2022-09-07T09:48:50.158Z,7.57
2022-09-07T09:54:18.516Z,8.88
2022-09-07T09:56:46.354Z,8.80
2022-09-07T10:05:28.306Z,7.63
2022-09-07T10:07:55.391Z,7.15
2022-09-07T10:10:22.358Z,8.85
2022-09-07T10:12:52.589Z,6.15
2022-09-07T10:15:41.390Z,5.20
2022-09-07T10:18:18.921Z,5.72
2022-09-07T10:20:45.909Z,5.47
2022-09-07T10:23:20.936Z,5.75
2022-09-07T10:25:48.042Z,5.05
2022-09-07T10:28:20.550Z,5.50
2022-09-07T10:31:15.760Z,5.82
2022-09-07T10:37:06.974Z,5.85
2022-09-07T10:39:37.856Z,6.88
2022-09-07T10:42:26.673Z,5.20
2022-09-07T10:45:05.614Z,5.00
2022-09-07T10:47:50.795Z,4.18
2022-09-07T10:50:39.988Z,4.78
2022-09-07T10:53:40.145Z,6.32
2022-09-07T10:56:24.744Z,6.00
2022-09-07T10:59:05.019Z,7.00
2022-09-07T11:01:42.445Z,5.03
2022-09-07T11:04:17.639Z,4.90
2022-09-07T11:06:48.386Z,4.65
2022-09-07T11:09:36.765Z,4.93
2022-09-07T11:12:14.765Z,37.50
2022-09-07T11:14:48.290Z,14.18
2022-09-07T11:17:20.998Z,8.90
2022-09-07T11:19:52.788Z,8.75
2022-09-07T11:22:35.718Z,7.22
2022-09-07T11:28:01.086Z,7.25
2022-09-07T11:30:31.403Z,7.78
2022-09-07T11:33:00.098Z,7.28
2022-09-07T11:35:51.779Z,6.80
2022-09-07T11:38:47.634Z,6.47
2022-09-07T11:41:36.840Z,6.30
2022-09-07T11:44:13.565Z,6.45
2022-09-07T11:46:44.509Z,6.18
2022-09-07T11:49:22.915Z,5.95
2022-09-07T11:52:06.919Z,5.88
2022-09-07T11:55:01.475Z,5.53
2022-09-07T12:00:20.804Z,5.55
2022-09-07T12:02:59.912Z,5.85
2022-09-07T12:05:33.323Z,5.25
2022-09-07T12:08:05.961Z,5.75
2022-09-07T12:10:54.164Z,5.38
2022-09-07T12:13:39.347Z,5.30
2022-09-07T12:16:18.535Z,5.13
2022-09-07T12:19:19.807Z,4.80
2022-09-07T12:21:52.876Z,4.53
2022-09-07T12:24:34.788Z,4.22
2022-09-07T12:27:03.077Z,4.95
2022-09-07T12:29:30.190Z,4.47
2022-09-07T12:32:00.685Z,4.32
2022-09-07T12:34:35.471Z,4.80
2022-09-07T12:37:27.164Z,4.13
2022-09-07T12:40:39.241Z,4.35
2022-09-07T12:43:15.179Z,4.60
2022-09-07T12:45:44.957Z,4.50
2022-09-07T12:48:17.835Z,4.25
2022-09-07T12:51:07.738Z,4.57
2022-09-07T12:54:02.451Z,4.30
2022-09-07T12:59:46.944Z,3.90
2022-09-07T13:02:44.108Z,3.80
2022-09-07T13:05:39.042Z,4.30
2022-09-07T13:08:20.957Z,3.70
2022-09-07T13:10:48.019Z,3.97
2022-09-07T13:13:14.929Z,3.70
2022-09-07T13:15:45.246Z,4.10
2022-09-07T13:18:35.268Z,3.70
2022-09-07T13:21:08.045Z,4.90
2022-09-07T13:23:43.098Z,5.20
2022-09-07T13:26:11.934Z,7.13
2022-09-07T13:28:56.207Z,5.25
2022-09-07T13:33:53.700Z,7.63
2022-09-07T13:36:39.097Z,8.30
2022-09-07T13:39:13.070Z,6.47
2022-09-07T13:44:25.888Z,6.07
2022-09-07T13:47:21.152Z,6.55
2022-09-07T13:50:26.836Z,7.07
2022-09-07T13:53:05.891Z,5.93
2022-09-07T13:55:46.402Z,6.13
2022-09-07T13:58:22.244Z,6.18
2022-09-07T14:00:53.457Z,5.70
2022-09-07T14:03:20.458Z,6.22
2022-09-07T14:05:47.518Z,5.90
2022-09-07T14:08:27.586Z,5.80
2022-09-07T14:10:54.452Z,5.88
2022-09-07T14:13:21.333Z,5.18
2022-09-07T14:15:49.215Z,5.30
2022-09-07T14:18:27.383Z,5.00
2022-09-07T14:20:54.293Z,5.40
2022-09-07T14:23:21.105Z,5.20
2022-09-07T14:28:38.275Z,5.10
2022-09-07T14:31:06.070Z,4.82
2022-09-07T14:33:33.078Z,5.43
2022-09-07T14:36:00.115Z,5.40
2022-09-07T14:41:20.529Z,5.20
2022-09-07T14:43:54.985Z,4.57
2022-09-07T14:46:25.325Z,4.80
2022-09-07T14:48:55.254Z,3.88
2022-09-07T14:51:35.173Z,4.65
2022-09-07T14:54:04.531Z,4.78
2022-09-07T14:56:39.235Z,4.47
2022-09-07T14:59:33.114Z,4.20
2022-09-07T15:02:18.492Z,4.18
2022-09-07T15:04:46.258Z,4.40
2022-09-07T15:07:37.888Z,4.10
2022-09-07T15:10:23.549Z,4.05
2022-09-07T15:12:55.156Z,4.40
2022-09-07T15:15:27.335Z,4.18
2022-09-07T15:17:55.672Z,4.00
2022-09-07T15:20:35.458Z,3.97
2022-09-07T15:23:08.494Z,4.25
2022-09-07T15:25:35.454Z,4.22
2022-09-07T15:28:02.544Z,4.25
2022-09-07T15:30:29.439Z,4.10
2022-09-07T15:32:57.382Z,4.15
2022-09-07T15:35:24.745Z,4.07
2022-09-07T15:38:59.375Z,4.03
2022-09-07T15:41:20.583Z,3.88
2022-09-07T15:43:41.269Z,3.80
2022-09-07T15:46:08.937Z,4.00
2022-09-07T15:48:36.328Z,4.10
2022-09-07T15:52:04.772Z,3.95
2022-09-07T15:56:42.333Z,3.80
2022-09-07T15:59:09.618Z,4.07
2022-09-07T16:01:52.506Z,4.22
2022-09-07T16:04:20.582Z,4.15
2022-09-07T16:06:48.360Z,4.00
2022-09-07T16:09:15.554Z,3.78
2022-09-07T16:11:42.476Z,3.97
2022-09-07T16:14:12.374Z,3.95
2022-09-07T16:19:26.117Z,4.47
2022-09-07T16:21:57.164Z,4.22
2022-09-07T16:24:24.559Z,4.15
2022-09-07T16:26:51.496Z,4.25
2022-09-07T16:29:18.320Z,4.25
2022-09-07T16:34:32.131Z,4.03
2022-09-07T16:36:58.941Z,4.03
2022-09-07T16:39:25.974Z,3.80
2022-09-07T16:41:52.987Z,4.20
2022-09-07T16:44:19.839Z,4.25
2022-09-07T16:46:46.669Z,3.90
2022-09-07T16:49:13.536Z,3.97
2022-09-07T16:51:40.363Z,4.32
2022-09-07T16:54:07.234Z,4.03
2022-09-07T16:56:38.805Z,4.32
2022-09-07T16:59:06.311Z,4.38
2022-09-07T17:01:34.898Z,4.47
2022-09-07T17:04:04.502Z,4.32
2022-09-07T17:06:35.098Z,4.03
2022-09-07T17:09:02.127Z,4.65
2022-09-07T17:11:33.157Z,4.38
2022-09-07T17:14:00.619Z,3.97
2022-09-07T17:16:29.734Z,4.30
2022-09-07T17:21:46.203Z,4.20
2022-09-07T17:24:13.281Z,4.28
2022-09-07T17:26:42.189Z,3.85
2022-09-07T17:29:09.739Z,4.10
2022-09-07T17:34:24.138Z,4.18
2022-09-07T17:36:51.556Z,4.40
2022-09-07T17:39:19.518Z,4.28
2022-09-07T17:41:53.099Z,4.53
2022-09-07T17:44:21.482Z,4.00
2022-09-07T17:46:48.343Z,4.00
2022-09-07T17:49:16.793Z,4.15
2022-09-07T17:51:44.355Z,4.18
2022-09-07T17:54:13.071Z,4.20
2022-09-07T17:56:40.547Z,4.20
2022-09-07T18:01:54.922Z,4.28
2022-09-07T18:04:22.732Z,3.72
2022-09-07T18:06:49.724Z,4.55
2022-09-07T18:09:19.725Z,4.05
2022-09-07T18:11:48.759Z,4.30
2022-09-07T18:14:16.572Z,4.05
2022-09-07T18:16:44.069Z,4.68
2022-09-07T18:19:11.344Z,4.00
2022-09-07T18:21:39.330Z,4.22
2022-09-07T18:24:11.770Z,3.90
2022-09-07T18:26:40.116Z,3.88
2022-09-07T18:29:18.965Z,3.90
2022-09-07T18:31:54.220Z,3.90
2022-09-07T18:34:21.161Z,4.38
2022-09-07T18:36:48.186Z,4.10
2022-09-07T18:39:15.206Z,4.18
2022-09-07T18:41:42.312Z,4.05
2022-09-07T18:46:56.275Z,4.30
2022-09-07T18:49:23.574Z,3.85
2022-09-07T18:54:38.720Z,4.38
2022-09-07T18:57:06.918Z,4.10
2022-09-07T18:59:34.104Z,4.28
2022-09-07T19:02:04.511Z,4.20
2022-09-07T19:07:27.385Z,4.22
2022-09-07T19:09:56.554Z,4.22
2022-09-07T19:12:24.286Z,4.22
2022-09-07T19:14:51.348Z,4.10
2022-09-07T19:17:18.250Z,4.10
2022-09-07T19:19:45.123Z,4.10
2022-09-07T19:22:12.168Z,4.03
2022-09-07T19:24:39.025Z,4.07
2022-09-07T19:27:07.278Z,4.47
2022-09-07T19:29:34.170Z,4.45
2022-09-07T19:32:07.801Z,4.18
2022-09-07T19:34:36.535Z,4.18
2022-09-07T19:37:04.118Z,4.20
2022-09-07T19:39:31.944Z,4.05
2022-09-07T19:41:59.002Z,4.38
2022-09-07T19:44:25.903Z,4.32
2022-09-07T19:46:52.844Z,3.92
2022-09-07T19:49:19.825Z,4.30
2022-09-07T19:51:49.366Z,4.50
2022-09-07T19:54:16.240Z,4.07
2022-09-07T19:56:43.377Z,4.40
2022-09-07T19:59:10.484Z,4.47
2022-09-07T20:01:38.589Z,4.32
2022-09-07T20:04:07.315Z,4.30
2022-09-07T20:06:34.593Z,4.40
2022-09-07T20:09:01.451Z,4.35
2022-09-07T20:11:31.222Z,4.00
2022-09-07T20:13:58.117Z,4.60
2022-09-07T20:16:25.289Z,3.92
2022-09-07T20:18:52.316Z,4.60
2022-09-07T20:21:21.146Z,4.65
2022-09-07T20:23:48.064Z,4.40
2022-09-07T20:26:16.601Z,4.03
2022-09-07T20:28:43.534Z,4.30
2022-09-07T20:31:12.050Z,4.30
2022-09-07T20:33:39.308Z,4.20
2022-09-07T20:36:07.426Z,4.20
2022-09-07T20:38:44.034Z,4.20
2022-09-07T20:41:16.805Z,4.35
2022-09-07T20:43:43.636Z,4.50
2022-09-07T20:46:10.507Z,4.60
2022-09-07T20:48:37.834Z,4.53
2022-09-07T20:51:06.609Z,4.20
2022-09-07T20:53:33.598Z,4.70
2022-09-07T20:56:02.099Z,4.55
2022-09-07T20:58:29.584Z,4.45
2022-09-07T21:00:56.516Z,4.32
2022-09-07T21:03:23.454Z,4.00
2022-09-07T21:05:50.351Z,4.30
2022-09-07T21:08:17.343Z,4.60
2022-09-07T21:10:45.425Z,4.18
2022-09-07T21:13:12.481Z,4.40
2022-09-07T21:15:40.409Z,4.72
2022-09-07T21:18:08.587Z,4.40
2022-09-07T21:20:35.434Z,4.13
2022-09-07T21:23:02.278Z,4.75
2022-09-07T21:25:29.088Z,4.38
2022-09-07T21:27:56.977Z,4.25
2022-09-07T21:30:23.815Z,4.50
2022-09-07T21:32:51.477Z,4.63
2022-09-07T21:35:19.066Z,4.43
2022-09-07T21:37:46.038Z,4.05
2022-09-07T21:40:13.006Z,4.10
2022-09-07T21:42:39.982Z,4.50
2022-09-07T21:45:07.765Z,4.38
2022-09-07T21:47:34.612Z,4.68
2022-09-07T21:50:01.469Z,4.75
2022-09-07T21:52:28.330Z,4.22
2022-09-07T21:54:55.422Z,4.53
2022-09-07T21:57:23.013Z,4.13
2022-09-07T21:59:49.858Z,4.28
2022-09-07T22:02:16.791Z,4.47
2022-09-07T22:04:43.677Z,4.13
2022-09-07T22:07:10.564Z,4.32
2022-09-07T22:09:37.378Z,4.72
2022-09-07T22:12:04.374Z,4.10
2022-09-07T22:14:31.443Z,4.13
2022-09-07T22:16:58.282Z,4.30
2022-09-07T22:19:25.136Z,4.07
2022-09-07T22:21:52.003Z,4.07
2022-09-07T22:24:18.812Z,4.32
2022-09-07T22:26:46.420Z,4.45
2022-09-07T22:29:13.427Z,4.38
2022-09-07T22:31:41.039Z,4.50
2022-09-07T22:34:08.567Z,4.07
2022-09-07T22:36:37.456Z,4.40
2022-09-07T22:39:05.751Z,3.92
2022-09-07T22:41:33.897Z,4.20
2022-09-07T22:44:00.962Z,4.35
2022-09-07T22:46:28.974Z,4.30
2022-09-07T22:48:56.990Z,4.15
2022-09-07T22:51:26.175Z,4.30
2022-09-07T22:53:53.216Z,4.20
2022-09-07T22:56:23.099Z,4.13
2022-09-07T22:58:51.787Z,4.43
2022-09-07T23:01:18.759Z,4.40
2022-09-07T23:03:45.800Z,4.38
2022-09-07T23:06:29.509Z,3.85
2022-09-07T23:08:57.166Z,4.00
2022-09-07T23:11:24.645Z,4.13
2022-09-07T23:13:55.560Z,4.15
2022-09-07T23:16:22.660Z,4.30
2022-09-07T23:18:49.603Z,4.13
2022-09-07T23:21:16.468Z,4.47
2022-09-07T23:23:43.426Z,3.80
2022-09-07T23:26:10.310Z,4.30
2022-09-07T23:28:37.129Z,4.10
2022-09-07T23:31:04.100Z,4.20
2022-09-07T23:33:31.165Z,4.35
2022-09-07T23:36:05.078Z,4.10
2022-09-07T23:38:32.458Z,3.92
2022-09-07T23:40:59.539Z,4.25
2022-09-07T23:43:30.181Z,4.32
2022-09-07T23:45:57.742Z,4.22
2022-09-07T23:48:24.624Z,4.07
2022-09-07T23:50:51.514Z,4.00
2022-09-07T23:53:18.611Z,4.10
2022-09-07T23:55:46.610Z,4.10
2022-09-07T23:58:13.504Z,3.90
